createdAt,value
2022-10-30T00:01:34.519Z,15.81
2022-10-30T00:04:00.938Z,15.78
2022-10-30T00:06:27.430Z,15.76
2022-10-30T00:08:53.880Z,15.76
2022-10-30T00:11:20.323Z,15.73
2022-10-30T00:13:46.745Z,15.71
2022-10-30T00:16:13.216Z,15.68
2022-10-30T00:18:39.895Z,15.66
2022-10-30T00:21:11.792Z,15.57
2022-10-30T00:23:38.518Z,15.59
2022-10-30T00:26:07.067Z,15.54
2022-10-30T00:28:33.722Z,15.54
2022-10-30T00:31:02.609Z,15.51
2022-10-30T00:33:29.610Z,15.43
2022-10-30T00:35:57.193Z,15.44
2022-10-30T00:38:23.729Z,15.41
2022-10-30T00:40:50.335Z,15.38
2022-10-30T00:43:37.122Z,15.34
2022-10-30T00:46:27.817Z,15.30
2022-10-30T00:49:10.287Z,15.26
2022-10-30T00:51:39.219Z,15.21
2022-10-30T00:54:06.761Z,15.15
2022-10-30T00:56:34.284Z,15.09
2022-10-30T00:59:13.470Z,15.01
2022-10-30T01:01:43.305Z,14.95
2022-10-30T01:04:10.996Z,14.94
2022-10-30T01:06:41.748Z,14.90
2022-10-30T01:09:08.298Z,14.85
2022-10-30T01:11:34.820Z,14.82
2022-10-30T01:14:06.362Z,14.79
2022-10-30T01:17:02.158Z,14.77
2022-10-30T01:22:36.922Z,14.75
2022-10-30T01:25:39.811Z,14.71
2022-10-30T01:28:46.179Z,14.72
2022-10-30T01:31:37.520Z,14.72
2022-10-30T01:34:19.349Z,14.71
2022-10-30T01:36:49.768Z,14.71
2022-10-30T01:39:40.959Z,14.68
2022-10-30T01:42:38.519Z,14.67
2022-10-30T01:45:08.509Z,14.65
2022-10-30T01:48:02.388Z,14.60
2022-10-30T01:51:01.255Z,14.54
2022-10-30T01:53:51.719Z,14.52
2022-10-30T01:56:49.683Z,14.47
2022-10-30T01:59:19.087Z,14.44
2022-10-30T02:01:46.313Z,14.40
2022-10-30T02:04:13.970Z,14.37
2022-10-30T02:06:41.157Z,14.36
2022-10-30T02:09:09.322Z,14.34
2022-10-30T02:11:41.671Z,14.33
2022-10-30T02:14:09.547Z,14.31
2022-10-30T02:16:42.023Z,14.31
2022-10-30T02:19:08.482Z,14.29
2022-10-30T02:21:35.090Z,14.26
2022-10-30T02:24:01.647Z,14.25
2022-10-30T02:26:28.141Z,14.23
2022-10-30T02:28:54.656Z,14.20
2022-10-30T02:31:21.092Z,14.19
2022-10-30T02:33:48.035Z,14.17
2022-10-30T02:36:14.769Z,14.16
2022-10-30T02:38:42.384Z,14.14
2022-10-30T02:41:09.010Z,14.12
2022-10-30T02:43:36.370Z,14.10
2022-10-30T02:46:02.902Z,14.09
2022-10-30T02:48:33.024Z,14.06
2022-10-30T02:51:00.665Z,14.04
2022-10-30T02:53:28.852Z,13.99
2022-10-30T02:55:55.619Z,13.97
2022-10-30T02:58:22.743Z,13.95
2022-10-30T03:00:49.341Z,13.92
2022-10-30T03:03:18.647Z,13.89
2022-10-30T03:05:48.096Z,13.84
2022-10-30T03:08:15.678Z,13.82
2022-10-30T03:10:42.133Z,13.79
2022-10-30T03:13:08.592Z,13.76
2022-10-30T03:15:35.541Z,13.73
2022-10-30T03:18:01.973Z,13.72
2022-10-30T03:20:28.485Z,13.70
2022-10-30T03:22:54.948Z,13.68
2022-10-30T03:25:21.423Z,13.67
2022-10-30T03:27:52.465Z,13.66
2022-10-30T03:30:18.939Z,13.64
2022-10-30T03:32:45.413Z,13.61
2022-10-30T03:35:12.084Z,13.57
2022-10-30T03:37:38.509Z,13.51
2022-10-30T03:40:05.477Z,13.47
2022-10-30T03:42:33.622Z,13.41
2022-10-30T03:45:00.107Z,13.37
2022-10-30T03:47:27.999Z,13.31
2022-10-30T03:49:54.838Z,13.25
2022-10-30T03:52:21.294Z,13.22
2022-10-30T03:54:49.121Z,13.18
2022-10-30T03:57:17.726Z,13.14
2022-10-30T04:00:03.571Z,13.12
2022-10-30T04:02:51.489Z,13.09
2022-10-30T04:05:20.075Z,13.03
2022-10-30T04:07:47.807Z,13.04
2022-10-30T04:10:19.312Z,13.02
2022-10-30T04:12:49.500Z,13.02
2022-10-30T04:15:16.172Z,13.02
2022-10-30T04:17:50.640Z,13.01
2022-10-30T04:20:21.425Z,13.03
2022-10-30T04:22:47.999Z,13.04
2022-10-30T04:25:19.261Z,13.05
2022-10-30T04:27:49.395Z,13.06
2022-10-30T04:30:17.498Z,13.08
2022-10-30T04:32:51.752Z,13.08
2022-10-30T04:35:20.671Z,13.09
2022-10-30T04:37:53.582Z,13.09
2022-10-30T04:40:20.983Z,13.10
2022-10-30T04:42:54.854Z,13.12
2022-10-30T04:45:22.446Z,13.12
2022-10-30T04:47:48.986Z,13.11
2022-10-30T04:50:16.982Z,13.13
2022-10-30T04:52:43.397Z,13.12
2022-10-30T04:55:10.927Z,13.12
2022-10-30T04:57:38.483Z,13.11
2022-10-30T05:00:07.896Z,13.09
2022-10-30T05:02:36.296Z,13.04
2022-10-30T05:05:03.791Z,13.08
2022-10-30T05:07:31.581Z,13.08
2022-10-30T05:09:58.172Z,13.08
2022-10-30T05:12:25.840Z,13.09
2022-10-30T05:14:54.099Z,13.10
2022-10-30T05:17:20.837Z,13.14
2022-10-30T05:19:48.471Z,13.18
2022-10-30T05:22:15.533Z,13.21
2022-10-30T05:24:42.670Z,13.25
2022-10-30T05:27:09.112Z,13.28
2022-10-30T05:29:35.607Z,13.31
2022-10-30T05:32:02.181Z,13.34
2022-10-30T05:34:40.316Z,13.39
2022-10-30T05:37:06.812Z,13.43
2022-10-30T05:39:33.273Z,13.46
2022-10-30T05:41:59.780Z,13.48
2022-10-30T05:44:59.179Z,13.52
2022-10-30T05:47:25.399Z,13.54
2022-10-30T05:49:54.698Z,13.58
2022-10-30T05:52:24.292Z,13.61
2022-10-30T05:54:51.638Z,13.64
2022-10-30T05:57:28.706Z,13.63
2022-10-30T05:59:55.859Z,13.70
2022-10-30T06:02:22.400Z,13.73
2022-10-30T06:04:48.888Z,13.76
2022-10-30T06:07:17.117Z,13.79
2022-10-30T06:09:43.713Z,13.83
2022-10-30T06:12:22.932Z,13.87
2022-10-30T06:15:09.631Z,13.88
2022-10-30T06:17:37.115Z,13.92
2022-10-30T06:20:26.583Z,13.89
2022-10-30T06:23:18.353Z,13.99
2022-10-30T06:25:51.735Z,14.01
2022-10-30T06:28:22.899Z,14.04
2022-10-30T06:30:53.210Z,14.05
2022-10-30T06:33:19.979Z,14.07
2022-10-30T06:35:49.928Z,14.10
2022-10-30T06:38:17.730Z,14.11
2022-10-30T06:40:45.546Z,14.13
2022-10-30T06:43:39.006Z,14.15
2022-10-30T06:46:17.329Z,14.16
2022-10-30T06:48:44.532Z,14.18
2022-10-30T06:51:13.570Z,14.18
2022-10-30T06:53:40.237Z,14.19
2022-10-30T06:56:25.122Z,14.22
2022-10-30T06:59:17.703Z,14.26
2022-10-30T07:02:11.296Z,14.25
2022-10-30T07:04:54.361Z,14.26
2022-10-30T07:07:20.822Z,14.28
2022-10-30T07:09:47.231Z,14.29
2022-10-30T07:12:15.689Z,14.30
2022-10-30T07:15:08.464Z,14.32
2022-10-30T07:17:40.997Z,14.33
2022-10-30T07:20:19.656Z,14.34
2022-10-30T07:22:46.103Z,14.35
2022-10-30T07:25:12.997Z,14.37
2022-10-30T07:27:51.054Z,14.36
2022-10-30T07:30:33.136Z,14.40
2022-10-30T07:33:28.610Z,14.41
2022-10-30T07:36:03.455Z,14.42
2022-10-30T07:38:43.187Z,14.45
2022-10-30T07:41:32.799Z,14.46
2022-10-30T07:44:17.749Z,14.48
2022-10-30T07:46:54.644Z,14.48
2022-10-30T07:49:28.765Z,14.50
2022-10-30T07:52:01.775Z,14.51
2022-10-30T07:54:28.342Z,14.53
2022-10-30T07:56:57.301Z,14.48
2022-10-30T07:59:57.005Z,14.54
2022-10-30T08:02:41.472Z,14.53
2022-10-30T08:05:21.019Z,14.53
2022-10-30T08:08:04.968Z,14.52
2022-10-30T08:10:31.649Z,14.51
2022-10-30T08:12:58.159Z,14.50
2022-10-30T08:15:24.757Z,14.49
2022-10-30T08:17:51.983Z,14.49
2022-10-30T08:20:22.692Z,14.49
2022-10-30T08:22:52.409Z,14.48
2022-10-30T08:25:26.053Z,14.46
2022-10-30T08:27:59.530Z,14.46
2022-10-30T08:30:32.316Z,14.41
2022-10-30T08:33:00.276Z,14.45
2022-10-30T08:36:01.908Z,14.45
2022-10-30T08:38:29.480Z,14.44
2022-10-30T08:41:10.438Z,14.45
2022-10-30T08:43:43.845Z,14.44
2022-10-30T08:46:10.329Z,14.42
2022-10-30T08:48:36.823Z,14.45
2022-10-30T08:51:03.639Z,14.46
2022-10-30T08:53:37.101Z,14.47
2022-10-30T08:56:08.901Z,14.49
2022-10-30T08:58:55.951Z,14.50
2022-10-30T09:01:22.802Z,14.53
2022-10-30T09:04:15.446Z,14.56
2022-10-30T09:06:45.044Z,14.60
2022-10-30T09:09:30.199Z,14.65
2022-10-30T09:12:00.687Z,14.69
2022-10-30T09:14:27.586Z,14.71
2022-10-30T09:16:55.773Z,14.72
2022-10-30T09:19:23.028Z,14.73
2022-10-30T09:21:49.580Z,14.73
2022-10-30T09:24:16.441Z,14.71
2022-10-30T09:26:42.935Z,14.70
2022-10-30T09:29:29.641Z,14.68
2022-10-30T09:32:05.939Z,14.66
2022-10-30T09:34:34.619Z,14.66
2022-10-30T09:37:13.446Z,14.63
2022-10-30T09:39:44.045Z,14.63
2022-10-30T09:42:55.162Z,14.62
2022-10-30T09:45:30.478Z,14.61
2022-10-30T09:48:36.473Z,14.59
2022-10-30T09:51:15.508Z,14.56
2022-10-30T09:54:18.569Z,14.53
2022-10-30T09:57:02.250Z,14.48
2022-10-30T10:00:03.644Z,14.46
2022-10-30T10:02:35.635Z,14.40
2022-10-30T10:05:17.302Z,14.46
2022-10-30T10:08:28.439Z,14.40
2022-10-30T10:11:29.539Z,14.49
2022-10-30T10:14:04.910Z,14.51
2022-10-30T10:16:34.857Z,14.44
2022-10-30T10:19:13.856Z,14.56
2022-10-30T10:21:45.335Z,14.52
2022-10-30T10:24:19.982Z,14.60
2022-10-30T10:27:24.268Z,14.60
2022-10-30T10:29:59.533Z,14.61
2022-10-30T10:32:28.921Z,14.64
2022-10-30T10:35:16.016Z,14.62
2022-10-30T10:37:52.527Z,14.70
2022-10-30T10:40:26.465Z,14.78
2022-10-30T10:43:01.893Z,14.83
2022-10-30T10:46:10.441Z,14.87
2022-10-30T10:49:05.987Z,14.93
2022-10-30T10:51:41.030Z,14.98
2022-10-30T10:54:23.756Z,14.99
2022-10-30T10:56:51.823Z,15.03
2022-10-30T10:59:38.556Z,15.10
2022-10-30T11:02:08.242Z,15.19
2022-10-30T11:04:40.291Z,15.17
2022-10-30T11:07:22.699Z,15.24
2022-10-30T11:09:57.494Z,15.33
2022-10-30T11:12:33.810Z,15.34
2022-10-30T11:15:17.802Z,15.32
2022-10-30T11:17:50.869Z,15.37
2022-10-30T11:20:21.947Z,15.31
2022-10-30T11:22:51.511Z,15.34
2022-10-30T11:25:19.995Z,15.29
2022-10-30T11:28:05.756Z,15.26
2022-10-30T11:30:32.662Z,15.23
2022-10-30T11:33:19.570Z,15.20
2022-10-30T11:35:46.012Z,15.15
2022-10-30T11:38:18.516Z,15.10
2022-10-30T11:40:52.082Z,15.06
2022-10-30T11:43:24.070Z,14.98
2022-10-30T11:45:51.556Z,15.01
2022-10-30T11:48:29.661Z,14.94
2022-10-30T11:51:01.260Z,14.96
2022-10-30T11:53:37.077Z,14.96
2022-10-30T11:56:11.341Z,14.96
2022-10-30T11:58:48.192Z,14.95
2022-10-30T12:01:22.780Z,14.90
2022-10-30T12:03:50.071Z,14.96
2022-10-30T12:06:20.194Z,15.00
2022-10-30T12:09:12.539Z,15.03
2022-10-30T12:11:41.140Z,15.03
2022-10-30T12:14:17.554Z,15.09
2022-10-30T12:16:47.177Z,15.11
2022-10-30T12:19:15.245Z,15.10
2022-10-30T12:21:49.444Z,15.09
2022-10-30T12:24:36.866Z,15.09
2022-10-30T12:27:10.258Z,15.11
2022-10-30T12:30:07.431Z,15.10
2022-10-30T12:32:44.067Z,15.14
2022-10-30T12:35:25.598Z,15.14
2022-10-30T12:37:53.753Z,15.08
2022-10-30T12:40:25.444Z,15.07
2022-10-30T12:43:00.132Z,15.10
2022-10-30T12:45:33.505Z,15.07
2022-10-30T12:48:16.614Z,15.09
2022-10-30T12:51:23.937Z,15.07
2022-10-30T12:53:57.395Z,15.06
2022-10-30T12:56:33.714Z,15.07
2022-10-30T12:59:21.101Z,15.04
2022-10-30T13:02:10.502Z,15.07
2022-10-30T13:04:42.088Z,15.08
2022-10-30T13:07:15.455Z,15.12
2022-10-30T13:10:00.493Z,15.12
2022-10-30T13:12:38.010Z,15.10
2022-10-30T13:15:38.031Z,15.12
2022-10-30T13:18:34.002Z,15.10
2022-10-30T13:21:00.396Z,15.13
2022-10-30T13:24:00.605Z,15.12
2022-10-30T13:26:53.402Z,15.13
2022-10-30T13:29:31.785Z,15.13
2022-10-30T13:32:32.199Z,15.13
2022-10-30T13:35:33.386Z,15.14
2022-10-30T13:38:13.148Z,15.14
2022-10-30T13:40:44.962Z,15.15
2022-10-30T13:43:43.419Z,15.15
2022-10-30T13:46:17.290Z,15.19
2022-10-30T13:49:05.760Z,15.18
2022-10-30T13:52:01.225Z,15.19
2022-10-30T13:54:38.614Z,15.21
2022-10-30T13:57:26.576Z,15.18
2022-10-30T14:00:04.073Z,15.25
2022-10-30T14:03:30.052Z,15.29
2022-10-30T14:06:12.131Z,15.32
2022-10-30T14:09:15.146Z,15.38
2022-10-30T14:11:41.876Z,15.47
2022-10-30T14:14:23.666Z,15.67
2022-10-30T14:17:14.581Z,15.88
2022-10-30T14:20:10.617Z,16.06
2022-10-30T14:22:40.451Z,16.16
2022-10-30T14:25:15.013Z,16.11
2022-10-30T14:27:41.554Z,16.20
2022-10-30T14:30:18.856Z,16.18
2022-10-30T14:32:51.042Z,16.16
2022-10-30T14:35:30.127Z,16.15
2022-10-30T14:37:57.286Z,16.11
2022-10-30T14:40:32.084Z,15.99
2022-10-30T14:43:08.279Z,16.01
2022-10-30T14:45:50.619Z,15.96
2022-10-30T14:48:44.951Z,15.93
2022-10-30T14:51:35.700Z,15.91
2022-10-30T14:54:27.384Z,15.93
2022-10-30T14:56:53.975Z,15.86
2022-10-30T14:59:23.865Z,15.75
2022-10-30T15:02:12.420Z,15.74
2022-10-30T15:05:10.028Z,15.65
2022-10-30T15:07:41.708Z,15.63
2022-10-30T15:10:19.896Z,15.57
2022-10-30T15:13:04.976Z,15.53
2022-10-30T15:15:32.033Z,15.44
2022-10-30T15:18:07.329Z,15.36
2022-10-30T15:20:35.039Z,15.31
2022-10-30T15:23:09.891Z,15.19
2022-10-30T15:25:45.671Z,15.11
2022-10-30T15:31:20.394Z,15.12
2022-10-30T15:33:47.074Z,15.09
2022-10-30T15:36:18.580Z,15.10
2022-10-30T15:38:44.968Z,15.11
2022-10-30T15:41:11.695Z,15.10
2022-10-30T15:43:42.173Z,15.10
2022-10-30T15:46:10.882Z,15.05
2022-10-30T15:48:41.061Z,15.09
2022-10-30T15:51:11.795Z,15.10
2022-10-30T15:53:44.992Z,15.11
2022-10-30T15:56:19.891Z,15.11
2022-10-30T15:58:52.562Z,15.08
2022-10-30T16:01:46.547Z,15.08
2022-10-30T16:04:19.514Z,15.06
2022-10-30T16:07:25.335Z,15.06
2022-10-30T16:09:58.733Z,15.04
2022-10-30T16:12:33.782Z,14.98
2022-10-30T16:15:24.202Z,14.91
2022-10-30T16:18:15.280Z,14.90
2022-10-30T16:20:44.909Z,14.85
2022-10-30T16:23:12.464Z,14.80
2022-10-30T16:25:45.884Z,14.74
2022-10-30T16:28:34.719Z,14.63
2022-10-30T16:31:04.531Z,14.57
2022-10-30T16:33:33.799Z,14.51
2022-10-30T16:36:03.363Z,14.51
2022-10-30T16:38:34.509Z,14.43
2022-10-30T16:41:01.290Z,14.44
2022-10-30T16:43:33.269Z,14.38
2022-10-30T16:46:15.075Z,14.35
2022-10-30T16:49:04.264Z,14.29
2022-10-30T16:51:31.108Z,14.27
2022-10-30T16:53:57.610Z,14.22
2022-10-30T16:56:27.334Z,14.15
2022-10-30T16:58:58.307Z,14.15
2022-10-30T17:01:28.151Z,14.12
2022-10-30T17:03:56.222Z,14.05
2022-10-30T17:06:37.671Z,14.06
2022-10-30T17:09:10.572Z,14.06
2022-10-30T17:11:39.587Z,14.03
2022-10-30T17:14:19.762Z,13.93
2022-10-30T17:16:57.693Z,13.96
2022-10-30T17:19:30.173Z,13.94
2022-10-30T17:22:02.758Z,13.93
2022-10-30T17:24:35.070Z,13.89
2022-10-30T17:27:04.503Z,13.82
2022-10-30T17:29:36.809Z,13.83
2022-10-30T17:32:05.052Z,13.81
2022-10-30T17:34:37.135Z,13.76
2022-10-30T17:37:03.735Z,13.78
2022-10-30T17:39:30.193Z,13.76
2022-10-30T17:41:57.748Z,13.74
2022-10-30T17:44:26.054Z,13.68
2022-10-30T17:46:52.729Z,13.69
2022-10-30T17:49:30.197Z,13.66
2022-10-30T17:51:57.299Z,13.66
2022-10-30T17:54:24.724Z,13.64
2022-10-30T17:56:51.333Z,13.64
2022-10-30T17:59:17.868Z,13.62
2022-10-30T18:01:44.718Z,13.60
2022-10-30T18:04:19.694Z,13.60
2022-10-30T18:06:47.636Z,13.58
2022-10-30T18:09:14.078Z,13.58
2022-10-30T18:11:40.606Z,13.56
2022-10-30T18:14:07.114Z,13.56
2022-10-30T18:16:33.592Z,13.53
2022-10-30T18:19:00.107Z,13.54
2022-10-30T18:21:26.586Z,13.53
2022-10-30T18:23:54.641Z,13.51
2022-10-30T18:26:26.173Z,13.44
2022-10-30T18:28:53.376Z,13.47
2022-10-30T18:31:22.541Z,13.43
2022-10-30T18:33:49.171Z,13.45
2022-10-30T18:36:18.655Z,13.44
2022-10-30T18:38:45.349Z,13.42
2022-10-30T18:41:20.536Z,13.40
2022-10-30T18:43:47.429Z,13.38
2022-10-30T18:46:15.258Z,13.36
2022-10-30T18:48:41.753Z,13.34
2022-10-30T18:51:27.874Z,13.30
2022-10-30T18:53:54.878Z,13.30
2022-10-30T18:56:23.929Z,13.28
2022-10-30T18:58:54.859Z,13.26
2022-10-30T19:01:25.891Z,13.23
2022-10-30T19:03:52.724Z,13.24
2022-10-30T19:06:22.180Z,13.22
2022-10-30T19:08:49.155Z,13.20
2022-10-30T19:11:21.990Z,13.14
2022-10-30T19:13:51.444Z,13.17
2022-10-30T19:16:19.197Z,13.14
2022-10-30T19:18:47.202Z,13.14
2022-10-30T19:21:22.005Z,13.07
2022-10-30T19:23:48.923Z,13.11
2022-10-30T19:26:15.615Z,13.10
2022-10-30T19:28:42.485Z,13.09
2022-10-30T19:31:13.343Z,13.03
2022-10-30T19:33:39.838Z,13.08
2022-10-30T19:36:06.551Z,13.07
2022-10-30T19:38:33.450Z,13.05
2022-10-30T19:41:00.634Z,13.06
2022-10-30T19:43:27.277Z,13.04
2022-10-30T19:45:55.561Z,13.03
2022-10-30T19:48:40.682Z,13.03
2022-10-30T19:51:09.262Z,13.01
2022-10-30T19:53:35.717Z,12.99
2022-10-30T19:56:02.169Z,12.97
2022-10-30T19:58:28.634Z,12.96
2022-10-30T20:00:55.190Z,12.94
2022-10-30T20:03:21.688Z,12.94
2022-10-30T20:05:49.841Z,12.91
2022-10-30T20:08:24.327Z,12.79
2022-10-30T20:10:53.435Z,12.86
2022-10-30T20:13:20.990Z,12.85
2022-10-30T20:15:47.425Z,12.82
2022-10-30T20:18:19.722Z,12.79
2022-10-30T20:20:49.230Z,12.74
2022-10-30T20:23:16.134Z,12.77
2022-10-30T20:25:43.610Z,12.76
2022-10-30T20:28:17.213Z,12.74
2022-10-30T20:30:43.787Z,12.72
2022-10-30T20:33:13.013Z,12.72
2022-10-30T20:35:39.647Z,12.69
2022-10-30T20:38:06.276Z,12.67
2022-10-30T20:40:32.707Z,12.66
2022-10-30T20:43:02.931Z,12.65
2022-10-30T20:45:29.815Z,12.61
2022-10-30T20:47:56.356Z,12.60
2022-10-30T20:50:23.010Z,12.58
2022-10-30T20:52:49.421Z,12.56
2022-10-30T20:55:15.960Z,12.54
2022-10-30T20:57:42.497Z,12.51
2022-10-30T21:00:11.784Z,12.46
2022-10-30T21:02:38.493Z,12.48
2022-10-30T21:05:12.083Z,12.47
2022-10-30T21:07:50.081Z,12.46
2022-10-30T21:10:16.587Z,12.47
2022-10-30T21:12:43.252Z,12.46
2022-10-30T21:15:09.947Z,12.48
2022-10-30T21:17:36.497Z,12.49
2022-10-30T21:20:03.163Z,12.51
2022-10-30T21:22:29.623Z,12.52
2022-10-30T21:24:56.048Z,12.53
2022-10-30T21:27:22.695Z,12.53
2022-10-30T21:29:49.102Z,12.56
2022-10-30T21:32:15.530Z,12.56
2022-10-30T21:34:41.991Z,12.56
2022-10-30T21:37:08.470Z,12.55
2022-10-30T21:39:34.879Z,12.59
2022-10-30T21:42:01.364Z,12.58
2022-10-30T21:44:27.840Z,12.58
2022-10-30T21:46:54.344Z,12.59
2022-10-30T21:49:20.933Z,12.59
2022-10-30T21:51:47.456Z,12.57
2022-10-30T21:54:15.248Z,12.56
2022-10-30T21:56:41.700Z,12.56
2022-10-30T21:59:09.909Z,12.54
2022-10-30T22:01:38.662Z,12.55
2022-10-30T22:04:07.520Z,12.56
2022-10-30T22:06:34.118Z,12.55
2022-10-30T22:09:00.580Z,12.57
2022-10-30T22:11:28.495Z,12.58
2022-10-30T22:14:00.369Z,12.59
2022-10-30T22:16:28.764Z,12.58
2022-10-30T22:18:56.297Z,12.59
2022-10-30T22:21:23.158Z,12.60
2022-10-30T22:23:49.616Z,12.61
2022-10-30T22:26:19.107Z,12.62
2022-10-30T22:28:46.077Z,12.62
2022-10-30T22:31:19.750Z,12.62
2022-10-30T22:33:46.289Z,12.59
2022-10-30T22:36:16.652Z,12.57
2022-10-30T22:38:43.347Z,12.64
2022-10-30T22:41:12.832Z,12.65
2022-10-30T22:43:41.132Z,12.65
2022-10-30T22:46:07.656Z,12.65
2022-10-30T22:48:34.397Z,12.64
2022-10-30T22:51:03.023Z,12.65
2022-10-30T22:53:30.774Z,12.65
2022-10-30T22:55:57.257Z,12.64
2022-10-30T22:58:27.864Z,12.64
2022-10-30T23:00:54.382Z,12.63
2022-10-30T23:03:20.847Z,12.62
2022-10-30T23:05:58.625Z,12.60
2022-10-30T23:08:26.310Z,12.62
2022-10-30T23:10:53.535Z,12.60
2022-10-30T23:15:54.280Z,12.58
2022-10-30T23:18:22.746Z,12.58
2022-10-30T23:20:49.169Z,12.57
2022-10-30T23:23:15.670Z,12.56
2022-10-30T23:25:42.299Z,12.54
2022-10-30T23:28:10.893Z,12.52
2022-10-30T23:30:40.738Z,12.51
2022-10-30T23:33:07.208Z,12.51
2022-10-30T23:35:33.634Z,12.48
2022-10-30T23:38:00.121Z,12.47
2022-10-30T23:40:26.562Z,12.45
2022-10-30T23:42:54.466Z,12.43
2022-10-30T23:45:22.281Z,12.43
2022-10-30T23:47:49.261Z,12.41
2022-10-30T23:50:16.518Z,12.38
2022-10-30T23:52:43.034Z,12.37
2022-10-30T23:55:09.728Z,12.34
2022-10-30T23:57:36.168Z,12.32
